sensor_id;sensor_type;location;lat;lon;timestamp;P1;durP1;ratioP1;P2;durP2;ratioP2
32613;SDS011;19031;51.400;6.770;2023-03-01T00:01:07;5.25;;;3.47;;
32613;SDS011;19031;51.400;6.770;2023-03-01T00:03:34;5.28;;;3.30;;
32613;SDS011;19031;51.400;6.770;2023-03-01T00:06:00;6.25;;;3.58;;
32613;SDS011;19031;51.400;6.770;2023-03-01T00:08:26;5.40;;;2.78;;
32613;SDS011;19031;51.400;6.770;2023-03-01T00:11:06;6.72;;;3.72;;
32613;SDS011;19031;51.400;6.770;2023-03-01T00:13:35;7.82;;;3.50;;
32613;SDS011;19031;51.400;6.770;2023-03-01T00:16:01;7.35;;;4.40;;
32613;SDS011;19031;51.400;6.770;2023-03-01T00:18:32;7.82;;;3.72;;
32613;SDS011;19031;51.400;6.770;2023-03-01T00:20:57;10.38;;;4.35;;
32613;SDS011;19031;51.400;6.770;2023-03-01T00:23:24;5.43;;;3.55;;
32613;SDS011;19031;51.400;6.770;2023-03-01T00:25:49;8.38;;;3.83;;
32613;SDS011;19031;51.400;6.770;2023-03-01T00:28:16;5.35;;;3.40;;
32613;SDS011;19031;51.400;6.770;2023-03-01T00:30:42;5.57;;;3.33;;
32613;SDS011;19031;51.400;6.770;2023-03-01T00:33:08;8.93;;;3.72;;
32613;SDS011;19031;51.400;6.770;2023-03-01T00:35:33;6.93;;;3.40;;
32613;SDS011;19031;51.400;6.770;2023-03-01T00:38:00;5.07;;;3.70;;
32613;SDS011;19031;51.400;6.770;2023-03-01T00:40:27;5.78;;;3.50;;
32613;SDS011;19031;51.400;6.770;2023-03-01T00:42:53;5.85;;;3.90;;
32613;SDS011;19031;51.400;6.770;2023-03-01T00:45:20;5.05;;;3.70;;
32613;SDS011;19031;51.400;6.770;2023-03-01T00:47:46;14.35;;;4.50;;
32613;SDS011;19031;51.400;6.770;2023-03-01T00:50:12;5.10;;;3.40;;
32613;SDS011;19031;51.400;6.770;2023-03-01T00:52:38;5.88;;;3.53;;
32613;SDS011;19031;51.400;6.770;2023-03-01T00:55:04;5.97;;;3.47;;
32613;SDS011;19031;51.400;6.770;2023-03-01T00:57:30;6.07;;;3.60;;
32613;SDS011;19031;51.400;6.770;2023-03-01T00:59:56;27.15;;;4.28;;
32613;SDS011;19031;51.400;6.770;2023-03-01T01:02:21;7.82;;;2.50;;
32613;SDS011;19031;51.400;6.770;2023-03-01T01:04:47;6.72;;;4.10;;
32613;SDS011;19031;51.400;6.770;2023-03-01T01:07:13;5.50;;;3.90;;
32613;SDS011;19031;51.400;6.770;2023-03-01T01:09:40;5.88;;;3.60;;
32613;SDS011;19031;51.400;6.770;2023-03-01T01:12:06;4.30;;;3.20;;
32613;SDS011;19031;51.400;6.770;2023-03-01T01:14:32;7.28;;;4.22;;
32613;SDS011;19031;51.400;6.770;2023-03-01T01:16:58;6.20;;;3.53;;
32613;SDS011;19031;51.400;6.770;2023-03-01T01:19:23;7.28;;;4.68;;
32613;SDS011;19031;51.400;6.770;2023-03-01T01:21:50;6.10;;;3.28;;
32613;SDS011;19031;51.400;6.770;2023-03-01T01:24:16;5.88;;;3.55;;
32613;SDS011;19031;51.400;6.770;2023-03-01T01:26:42;6.55;;;3.63;;
32613;SDS011;19031;51.400;6.770;2023-03-01T01:29:08;6.30;;;3.30;;
32613;SDS011;19031;51.400;6.770;2023-03-01T01:31:34;5.35;;;3.42;;
32613;SDS011;19031;51.400;6.770;2023-03-01T01:34:03;10.02;;;4.00;;
32613;SDS011;19031;51.400;6.770;2023-03-01T01:36:30;8.20;;;4.45;;
32613;SDS011;19031;51.400;6.770;2023-03-01T01:38:56;6.03;;;3.38;;
32613;SDS011;19031;51.400;6.770;2023-03-01T01:41:22;8.85;;;3.85;;
32613;SDS011;19031;51.400;6.770;2023-03-01T01:43:49;9.85;;;4.20;;
32613;SDS011;19031;51.400;6.770;2023-03-01T01:49:22;6.63;;;3.92;;
32613;SDS011;19031;51.400;6.770;2023-03-01T01:52:07;7.63;;;4.55;;
32613;SDS011;19031;51.400;6.770;2023-03-01T01:57:47;8.50;;;4.25;;
32613;SDS011;19031;51.400;6.770;2023-03-01T02:00:17;5.85;;;3.95;;
32613;SDS011;19031;51.400;6.770;2023-03-01T02:02:46;10.57;;;4.50;;
32613;SDS011;19031;51.400;6.770;2023-03-01T02:05:28;7.20;;;4.22;;
32613;SDS011;19031;51.400;6.770;2023-03-01T02:08:03;5.93;;;3.85;;
32613;SDS011;19031;51.400;6.770;2023-03-01T02:10:30;5.63;;;3.95;;
32613;SDS011;19031;51.400;6.770;2023-03-01T02:12:58;9.20;;;4.63;;
32613;SDS011;19031;51.400;6.770;2023-03-01T02:15:24;8.13;;;4.18;;
32613;SDS011;19031;51.400;6.770;2023-03-01T02:17:51;12.52;;;3.78;;
32613;SDS011;19031;51.400;6.770;2023-03-01T02:23:10;8.10;;;4.20;;
32613;SDS011;19031;51.400;6.770;2023-03-01T02:30:42;11.15;;;4.43;;
32613;SDS011;19031;51.400;6.770;2023-03-01T02:33:29;6.80;;;4.45;;
32613;SDS011;19031;51.400;6.770;2023-03-01T02:35:57;9.23;;;4.60;;
32613;SDS011;19031;51.400;6.770;2023-03-01T02:38:25;8.15;;;4.43;;
32613;SDS011;19031;51.400;6.770;2023-03-01T02:40:51;7.45;;;4.22;;
32613;SDS011;19031;51.400;6.770;2023-03-01T02:43:19;10.07;;;3.67;;
32613;SDS011;19031;51.400;6.770;2023-03-01T02:45:48;8.88;;;4.03;;
32613;SDS011;19031;51.400;6.770;2023-03-01T02:48:15;6.45;;;3.85;;
32613;SDS011;19031;51.400;6.770;2023-03-01T02:53:16;6.43;;;3.55;;
32613;SDS011;19031;51.400;6.770;2023-03-01T02:56:06;6.07;;;3.72;;
32613;SDS011;19031;51.400;6.770;2023-03-01T02:58:38;7.90;;;4.45;;
32613;SDS011;19031;51.400;6.770;2023-03-01T03:01:10;9.13;;;3.65;;
32613;SDS011;19031;51.400;6.770;2023-03-01T03:03:36;15.32;;;3.80;;
32613;SDS011;19031;51.400;6.770;2023-03-01T03:06:01;7.00;;;3.72;;
32613;SDS011;19031;51.400;6.770;2023-03-01T03:08:27;5.40;;;3.78;;
32613;SDS011;19031;51.400;6.770;2023-03-01T03:10:52;5.47;;;3.67;;
32613;SDS011;19031;51.400;6.770;2023-03-01T03:13:18;9.95;;;4.40;;
32613;SDS011;19031;51.400;6.770;2023-03-01T03:15:44;8.88;;;4.43;;
32613;SDS011;19031;51.400;6.770;2023-03-01T03:18:14;10.13;;;4.80;;
32613;SDS011;19031;51.400;6.770;2023-03-01T03:20:41;7.57;;;3.92;;
32613;SDS011;19031;51.400;6.770;2023-03-01T03:23:08;12.75;;;3.75;;
32613;SDS011;19031;51.400;6.770;2023-03-01T03:25:34;7.15;;;3.63;;
32613;SDS011;19031;51.400;6.770;2023-03-01T03:28:02;8.43;;;4.75;;
32613;SDS011;19031;51.400;6.770;2023-03-01T03:30:34;12.57;;;4.55;;
32613;SDS011;19031;51.400;6.770;2023-03-01T03:33:04;7.25;;;4.13;;
32613;SDS011;19031;51.400;6.770;2023-03-01T03:35:37;5.55;;;3.92;;
32613;SDS011;19031;51.400;6.770;2023-03-01T03:38:05;10.07;;;4.60;;
32613;SDS011;19031;51.400;6.770;2023-03-01T03:40:40;8.32;;;4.05;;
32613;SDS011;19031;51.400;6.770;2023-03-01T03:43:09;7.93;;;5.13;;
32613;SDS011;19031;51.400;6.770;2023-03-01T03:45:37;6.97;;;3.03;;
32613;SDS011;19031;51.400;6.770;2023-03-01T03:48:04;7.53;;;3.70;;
32613;SDS011;19031;51.400;6.770;2023-03-01T03:50:31;8.68;;;4.40;;
32613;SDS011;19031;51.400;6.770;2023-03-01T03:53:00;9.07;;;5.03;;
32613;SDS011;19031;51.400;6.770;2023-03-01T03:55:26;8.90;;;4.82;;
32613;SDS011;19031;51.400;6.770;2023-03-01T03:57:56;8.90;;;4.70;;
32613;SDS011;19031;51.400;6.770;2023-03-01T04:00:23;4.82;;;3.63;;
32613;SDS011;19031;51.400;6.770;2023-03-01T04:02:49;10.02;;;4.32;;
32613;SDS011;19031;51.400;6.770;2023-03-01T04:05:16;6.20;;;3.85;;
32613;SDS011;19031;51.400;6.770;2023-03-01T04:07:43;7.43;;;4.57;;
32613;SDS011;19031;51.400;6.770;2023-03-01T04:10:10;6.88;;;3.75;;
32613;SDS011;19031;51.400;6.770;2023-03-01T04:12:40;6.88;;;4.10;;
32613;SDS011;19031;51.400;6.770;2023-03-01T04:15:08;10.85;;;5.32;;
32613;SDS011;19031;51.400;6.770;2023-03-01T04:17:47;11.20;;;4.38;;
32613;SDS011;19031;51.400;6.770;2023-03-01T04:20:16;7.45;;;4.50;;
32613;SDS011;19031;51.400;6.770;2023-03-01T04:22:49;8.93;;;4.18;;
32613;SDS011;19031;51.400;6.770;2023-03-01T04:25:35;7.95;;;5.03;;
32613;SDS011;19031;51.400;6.770;2023-03-01T04:28:05;7.30;;;4.22;;
32613;SDS011;19031;51.400;6.770;2023-03-01T04:30:31;7.40;;;4.40;;
32613;SDS011;19031;51.400;6.770;2023-03-01T04:33:00;12.20;;;4.72;;
32613;SDS011;19031;51.400;6.770;2023-03-01T04:35:27;9.65;;;4.28;;
32613;SDS011;19031;51.400;6.770;2023-03-01T04:37:52;11.85;;;4.97;;
32613;SDS011;19031;51.400;6.770;2023-03-01T04:40:18;9.60;;;4.38;;
32613;SDS011;19031;51.400;6.770;2023-03-01T04:42:44;8.10;;;4.90;;
32613;SDS011;19031;51.400;6.770;2023-03-01T04:45:09;11.07;;;5.00;;
32613;SDS011;19031;51.400;6.770;2023-03-01T04:47:39;11.40;;;4.38;;
32613;SDS011;19031;51.400;6.770;2023-03-01T04:50:09;9.60;;;4.65;;
32613;SDS011;19031;51.400;6.770;2023-03-01T04:52:36;11.50;;;5.47;;
32613;SDS011;19031;51.400;6.770;2023-03-01T04:55:05;9.55;;;3.90;;
32613;SDS011;19031;51.400;6.770;2023-03-01T04:57:31;8.18;;;4.60;;
32613;SDS011;19031;51.400;6.770;2023-03-01T04:59:57;11.40;;;5.22;;
32613;SDS011;19031;51.400;6.770;2023-03-01T05:02:23;9.80;;;4.63;;
32613;SDS011;19031;51.400;6.770;2023-03-01T05:04:48;9.25;;;5.50;;
32613;SDS011;19031;51.400;6.770;2023-03-01T05:07:14;9.60;;;4.68;;
32613;SDS011;19031;51.400;6.770;2023-03-01T05:09:44;7.35;;;4.13;;
32613;SDS011;19031;51.400;6.770;2023-03-01T05:12:12;5.93;;;4.40;;
32613;SDS011;19031;51.400;6.770;2023-03-01T05:14:39;17.02;;;5.05;;
32613;SDS011;19031;51.400;6.770;2023-03-01T05:17:05;6.20;;;4.05;;
32613;SDS011;19031;51.400;6.770;2023-03-01T05:19:31;8.38;;;4.65;;
32613;SDS011;19031;51.400;6.770;2023-03-01T05:21:58;9.77;;;4.18;;
32613;SDS011;19031;51.400;6.770;2023-03-01T05:24:27;6.30;;;3.95;;
32613;SDS011;19031;51.400;6.770;2023-03-01T05:26:53;6.13;;;4.15;;
32613;SDS011;19031;51.400;6.770;2023-03-01T05:29:19;7.47;;;4.45;;
32613;SDS011;19031;51.400;6.770;2023-03-01T05:31:52;9.07;;;5.03;;
32613;SDS011;19031;51.400;6.770;2023-03-01T05:34:22;12.65;;;5.13;;
32613;SDS011;19031;51.400;6.770;2023-03-01T05:36:56;7.97;;;4.63;;
32613;SDS011;19031;51.400;6.770;2023-03-01T05:39:22;7.50;;;3.90;;
32613;SDS011;19031;51.400;6.770;2023-03-01T05:41:55;15.27;;;6.17;;
32613;SDS011;19031;51.400;6.770;2023-03-01T05:44:22;6.88;;;4.18;;
32613;SDS011;19031;51.400;6.770;2023-03-01T05:46:48;7.63;;;3.92;;
32613;SDS011;19031;51.400;6.770;2023-03-01T05:49:15;10.77;;;5.13;;
32613;SDS011;19031;51.400;6.770;2023-03-01T05:51:41;6.82;;;3.67;;
32613;SDS011;19031;51.400;6.770;2023-03-01T05:54:08;10.07;;;5.30;;
32613;SDS011;19031;51.400;6.770;2023-03-01T05:56:34;19.48;;;4.90;;
32613;SDS011;19031;51.400;6.770;2023-03-01T05:59:00;7.32;;;4.10;;
32613;SDS011;19031;51.400;6.770;2023-03-01T06:01:27;22.08;;;6.25;;
32613;SDS011;19031;51.400;6.770;2023-03-01T06:03:52;9.13;;;4.47;;
32613;SDS011;19031;51.400;6.770;2023-03-01T06:06:18;8.25;;;4.90;;
32613;SDS011;19031;51.400;6.770;2023-03-01T06:08:44;7.63;;;4.18;;
32613;SDS011;19031;51.400;6.770;2023-03-01T06:11:09;7.82;;;4.13;;
32613;SDS011;19031;51.400;6.770;2023-03-01T06:13:35;12.38;;;5.10;;
32613;SDS011;19031;51.400;6.770;2023-03-01T06:16:01;8.10;;;5.03;;
32613;SDS011;19031;51.400;6.770;2023-03-01T06:18:30;9.38;;;3.90;;
32613;SDS011;19031;51.400;6.770;2023-03-01T06:20:56;6.03;;;4.28;;
32613;SDS011;19031;51.400;6.770;2023-03-01T06:23:22;8.98;;;5.07;;
32613;SDS011;19031;51.400;6.770;2023-03-01T06:25:48;9.43;;;4.55;;
32613;SDS011;19031;51.400;6.770;2023-03-01T06:28:13;11.18;;;5.75;;
32613;SDS011;19031;51.400;6.770;2023-03-01T06:30:39;7.28;;;4.22;;
32613;SDS011;19031;51.400;6.770;2023-03-01T06:33:04;7.95;;;4.88;;
32613;SDS011;19031;51.400;6.770;2023-03-01T06:35:30;9.50;;;4.78;;
32613;SDS011;19031;51.400;6.770;2023-03-01T06:37:56;19.15;;;5.03;;
32613;SDS011;19031;51.400;6.770;2023-03-01T06:40:24;10.63;;;4.47;;
32613;SDS011;19031;51.400;6.770;2023-03-01T06:42:50;8.32;;;4.63;;
32613;SDS011;19031;51.400;6.770;2023-03-01T06:45:16;7.47;;;4.72;;
32613;SDS011;19031;51.400;6.770;2023-03-01T06:47:44;9.80;;;4.68;;
32613;SDS011;19031;51.400;6.770;2023-03-01T06:50:10;8.13;;;4.15;;
32613;SDS011;19031;51.400;6.770;2023-03-01T06:52:36;8.18;;;5.00;;
32613;SDS011;19031;51.400;6.770;2023-03-01T06:55:01;11.65;;;5.13;;
32613;SDS011;19031;51.400;6.770;2023-03-01T06:57:27;10.52;;;5.22;;
32613;SDS011;19031;51.400;6.770;2023-03-01T06:59:53;10.02;;;5.10;;
32613;SDS011;19031;51.400;6.770;2023-03-01T07:02:19;11.90;;;5.07;;
32613;SDS011;19031;51.400;6.770;2023-03-01T07:04:44;7.00;;;5.15;;
32613;SDS011;19031;51.400;6.770;2023-03-01T07:07:10;12.13;;;5.20;;
32613;SDS011;19031;51.400;6.770;2023-03-01T07:09:36;9.25;;;4.75;;
32613;SDS011;19031;51.400;6.770;2023-03-01T07:12:01;11.00;;;5.93;;
32613;SDS011;19031;51.400;6.770;2023-03-01T07:14:27;7.57;;;4.97;;
32613;SDS011;19031;51.400;6.770;2023-03-01T07:16:53;9.52;;;5.13;;
32613;SDS011;19031;51.400;6.770;2023-03-01T07:19:19;14.13;;;5.15;;
32613;SDS011;19031;51.400;6.770;2023-03-01T07:21:45;7.57;;;4.05;;
32613;SDS011;19031;51.400;6.770;2023-03-01T07:24:11;12.85;;;4.97;;
32613;SDS011;19031;51.400;6.770;2023-03-01T07:26:36;9.20;;;3.97;;
32613;SDS011;19031;51.400;6.770;2023-03-01T07:29:03;7.05;;;4.75;;
32613;SDS011;19031;51.400;6.770;2023-03-01T07:31:30;14.60;;;5.38;;
32613;SDS011;19031;51.400;6.770;2023-03-01T07:33:56;9.50;;;6.07;;
32613;SDS011;19031;51.400;6.770;2023-03-01T07:36:22;14.63;;;6.82;;
32613;SDS011;19031;51.400;6.770;2023-03-01T07:38:49;11.82;;;6.82;;
32613;SDS011;19031;51.400;6.770;2023-03-01T07:41:14;13.85;;;7.07;;
32613;SDS011;19031;51.400;6.770;2023-03-01T07:43:40;12.77;;;4.35;;
32613;SDS011;19031;51.400;6.770;2023-03-01T07:46:06;12.55;;;5.35;;
32613;SDS011;19031;51.400;6.770;2023-03-01T07:48:32;9.38;;;4.45;;
32613;SDS011;19031;51.400;6.770;2023-03-01T07:50:58;7.03;;;4.15;;
32613;SDS011;19031;51.400;6.770;2023-03-01T07:53:28;4.80;;;3.08;;
32613;SDS011;19031;51.400;6.770;2023-03-01T07:56:09;4.28;;;3.17;;
32613;SDS011;19031;51.400;6.770;2023-03-01T07:58:36;7.32;;;4.32;;
32613;SDS011;19031;51.400;6.770;2023-03-01T08:01:03;10.05;;;4.20;;
32613;SDS011;19031;51.400;6.770;2023-03-01T08:03:30;6.78;;;4.00;;
32613;SDS011;19031;51.400;6.770;2023-03-01T08:05:58;7.00;;;4.20;;
32613;SDS011;19031;51.400;6.770;2023-03-01T08:08:25;7.13;;;4.25;;
32613;SDS011;19031;51.400;6.770;2023-03-01T08:10:50;8.75;;;4.28;;
32613;SDS011;19031;51.400;6.770;2023-03-01T08:13:16;5.70;;;3.05;;
32613;SDS011;19031;51.400;6.770;2023-03-01T08:15:47;7.85;;;3.75;;
32613;SDS011;19031;51.400;6.770;2023-03-01T08:18:13;9.05;;;5.03;;
32613;SDS011;19031;51.400;6.770;2023-03-01T08:20:39;8.68;;;4.93;;
32613;SDS011;19031;51.400;6.770;2023-03-01T08:23:05;9.57;;;4.95;;
32613;SDS011;19031;51.400;6.770;2023-03-01T08:25:30;9.55;;;4.78;;
32613;SDS011;19031;51.400;6.770;2023-03-01T08:27:56;10.88;;;4.63;;
32613;SDS011;19031;51.400;6.770;2023-03-01T08:30:21;10.90;;;4.50;;
32613;SDS011;19031;51.400;6.770;2023-03-01T08:32:48;6.07;;;4.05;;
32613;SDS011;19031;51.400;6.770;2023-03-01T08:35:15;7.63;;;4.60;;
32613;SDS011;19031;51.400;6.770;2023-03-01T08:37:41;10.18;;;4.68;;
32613;SDS011;19031;51.400;6.770;2023-03-01T08:40:06;5.00;;;4.00;;
32613;SDS011;19031;51.400;6.770;2023-03-01T08:42:34;16.58;;;4.22;;
32613;SDS011;19031;51.400;6.770;2023-03-01T08:45:01;10.07;;;4.90;;
32613;SDS011;19031;51.400;6.770;2023-03-01T08:47:26;11.23;;;4.85;;
32613;SDS011;19031;51.400;6.770;2023-03-01T08:49:52;13.88;;;4.10;;
32613;SDS011;19031;51.400;6.770;2023-03-01T08:52:18;9.40;;;5.13;;
32613;SDS011;19031;51.400;6.770;2023-03-01T08:54:44;7.75;;;4.43;;
32613;SDS011;19031;51.400;6.770;2023-03-01T08:57:12;12.27;;;5.82;;
32613;SDS011;19031;51.400;6.770;2023-03-01T08:59:37;7.65;;;4.18;;
32613;SDS011;19031;51.400;6.770;2023-03-01T09:02:04;8.52;;;4.63;;
32613;SDS011;19031;51.400;6.770;2023-03-01T09:04:30;7.90;;;4.45;;
32613;SDS011;19031;51.400;6.770;2023-03-01T09:06:55;7.80;;;4.40;;
32613;SDS011;19031;51.400;6.770;2023-03-01T09:09:21;13.43;;;4.88;;
32613;SDS011;19031;51.400;6.770;2023-03-01T09:11:47;8.50;;;4.80;;
32613;SDS011;19031;51.400;6.770;2023-03-01T09:14:14;12.48;;;4.78;;
32613;SDS011;19031;51.400;6.770;2023-03-01T09:16:40;7.30;;;4.15;;
32613;SDS011;19031;51.400;6.770;2023-03-01T09:19:06;5.68;;;3.65;;
32613;SDS011;19031;51.400;6.770;2023-03-01T09:21:31;9.45;;;4.65;;
32613;SDS011;19031;51.400;6.770;2023-03-01T09:23:57;7.15;;;4.32;;
32613;SDS011;19031;51.400;6.770;2023-03-01T09:26:23;8.60;;;4.45;;
32613;SDS011;19031;51.400;6.770;2023-03-01T09:28:50;9.10;;;4.15;;
32613;SDS011;19031;51.400;6.770;2023-03-01T09:31:19;14.63;;;4.53;;
32613;SDS011;19031;51.400;6.770;2023-03-01T09:33:46;10.15;;;4.90;;
32613;SDS011;19031;51.400;6.770;2023-03-01T09:36:17;8.23;;;4.35;;
32613;SDS011;19031;51.400;6.770;2023-03-01T09:38:45;8.43;;;4.60;;
32613;SDS011;19031;51.400;6.770;2023-03-01T09:44:10;19.77;;;4.60;;
32613;SDS011;19031;51.400;6.770;2023-03-01T09:46:47;11.43;;;4.25;;
32613;SDS011;19031;51.400;6.770;2023-03-01T09:49:23;8.95;;;4.65;;
32613;SDS011;19031;51.400;6.770;2023-03-01T09:52:06;17.77;;;4.93;;
32613;SDS011;19031;51.400;6.770;2023-03-01T09:54:46;7.88;;;3.92;;
32613;SDS011;19031;51.400;6.770;2023-03-01T10:00:16;7.97;;;4.38;;
32613;SDS011;19031;51.400;6.770;2023-03-01T10:02:51;9.43;;;4.57;;
32613;SDS011;19031;51.400;6.770;2023-03-01T10:11:32;5.88;;;3.60;;
32613;SDS011;19031;51.400;6.770;2023-03-01T10:14:15;9.45;;;4.10;;
32613;SDS011;19031;51.400;6.770;2023-03-01T10:17:24;8.50;;;4.65;;
32613;SDS011;19031;51.400;6.770;2023-03-01T10:19:51;11.45;;;4.18;;
32613;SDS011;19031;51.400;6.770;2023-03-01T10:22:21;6.35;;;3.75;;
32613;SDS011;19031;51.400;6.770;2023-03-01T10:24:49;8.23;;;4.10;;
32613;SDS011;19031;51.400;6.770;2023-03-01T10:27:26;9.63;;;3.90;;
32613;SDS011;19031;51.400;6.770;2023-03-01T10:30:05;6.60;;;3.85;;
32613;SDS011;19031;51.400;6.770;2023-03-01T10:32:36;7.82;;;4.15;;
32613;SDS011;19031;51.400;6.770;2023-03-01T10:35:15;6.20;;;3.90;;
32613;SDS011;19031;51.400;6.770;2023-03-01T10:40:55;5.57;;;3.65;;
32613;SDS011;19031;51.400;6.770;2023-03-01T10:43:24;8.45;;;3.70;;
32613;SDS011;19031;51.400;6.770;2023-03-01T10:45:52;7.30;;;3.50;;
32613;SDS011;19031;51.400;6.770;2023-03-01T10:48:19;6.18;;;3.83;;
32613;SDS011;19031;51.400;6.770;2023-03-01T10:56:00;7.00;;;3.60;;
32613;SDS011;19031;51.400;6.770;2023-03-01T10:59:01;6.95;;;3.17;;
32613;SDS011;19031;51.400;6.770;2023-03-01T11:01:32;5.97;;;3.77;;
32613;SDS011;19031;51.400;6.770;2023-03-01T11:04:09;6.22;;;2.97;;
32613;SDS011;19031;51.400;6.770;2023-03-01T11:06:38;6.65;;;3.47;;
32613;SDS011;19031;51.400;6.770;2023-03-01T11:09:14;6.15;;;3.13;;
32613;SDS011;19031;51.400;6.770;2023-03-01T11:11:43;7.97;;;3.22;;
32613;SDS011;19031;51.400;6.770;2023-03-01T11:14:16;4.47;;;3.13;;
32613;SDS011;19031;51.400;6.770;2023-03-01T11:21:39;10.40;;;3.88;;
32613;SDS011;19031;51.400;6.770;2023-03-01T11:24:09;6.20;;;2.95;;
32613;SDS011;19031;51.400;6.770;2023-03-01T11:26:38;5.93;;;2.88;;
32613;SDS011;19031;51.400;6.770;2023-03-01T11:29:11;6.03;;;3.28;;
32613;SDS011;19031;51.400;6.770;2023-03-01T11:31:43;5.28;;;2.95;;
32613;SDS011;19031;51.400;6.770;2023-03-01T11:34:11;6.25;;;3.00;;
32613;SDS011;19031;51.400;6.770;2023-03-01T11:42:16;8.02;;;2.85;;
32613;SDS011;19031;51.400;6.770;2023-03-01T11:44:54;10.40;;;3.20;;
32613;SDS011;19031;51.400;6.770;2023-03-01T11:50:19;5.63;;;3.13;;
32613;SDS011;19031;51.400;6.770;2023-03-01T11:59:08;4.85;;;2.78;;
32613;SDS011;19031;51.400;6.770;2023-03-01T12:01:14;6.90;;;2.97;;
32613;SDS011;19031;51.400;6.770;2023-03-01T12:09:00;7.13;;;4.00;;
32613;SDS011;19031;51.400;6.770;2023-03-01T12:11:32;4.93;;;2.88;;
32613;SDS011;19031;51.400;6.770;2023-03-01T12:23:28;6.93;;;3.10;;
32613;SDS011;19031;51.400;6.770;2023-03-01T12:28:46;5.65;;;3.60;;
32613;SDS011;19031;51.400;6.770;2023-03-01T12:31:38;4.85;;;2.63;;
32613;SDS011;19031;51.400;6.770;2023-03-01T12:36:53;6.18;;;2.88;;
32613;SDS011;19031;51.400;6.770;2023-03-01T12:48:24;6.13;;;2.80;;
32613;SDS011;19031;51.400;6.770;2023-03-01T12:51:06;5.68;;;3.35;;
32613;SDS011;19031;51.400;6.770;2023-03-01T12:53:40;5.55;;;3.17;;
32613;SDS011;19031;51.400;6.770;2023-03-01T12:56:25;6.00;;;3.42;;
32613;SDS011;19031;51.400;6.770;2023-03-01T12:59:15;6.55;;;3.20;;
32613;SDS011;19031;51.400;6.770;2023-03-01T13:10:58;8.38;;;3.35;;
32613;SDS011;19031;51.400;6.770;2023-03-01T13:13:28;4.60;;;2.75;;
32613;SDS011;19031;51.400;6.770;2023-03-01T13:15:54;5.05;;;2.55;;
32613;SDS011;19031;51.400;6.770;2023-03-01T13:20:59;7.53;;;2.97;;
32613;SDS011;19031;51.400;6.770;2023-03-01T13:26:11;8.63;;;2.67;;
32613;SDS011;19031;51.400;6.770;2023-03-01T13:33:53;5.80;;;2.92;;
32613;SDS011;19031;51.400;6.770;2023-03-01T13:38:57;7.03;;;3.03;;
32613;SDS011;19031;51.400;6.770;2023-03-01T13:57:18;5.32;;;2.92;;
32613;SDS011;19031;51.400;6.770;2023-03-01T13:59:49;5.13;;;2.72;;
32613;SDS011;19031;51.400;6.770;2023-03-01T14:02:15;9.77;;;3.22;;
32613;SDS011;19031;51.400;6.770;2023-03-01T14:04:41;7.22;;;3.72;;
32613;SDS011;19031;51.400;6.770;2023-03-01T14:07:11;6.60;;;3.30;;
32613;SDS011;19031;51.400;6.770;2023-03-01T14:09:40;9.45;;;4.35;;
32613;SDS011;19031;51.400;6.770;2023-03-01T14:14:54;5.88;;;3.13;;
32613;SDS011;19031;51.400;6.770;2023-03-01T14:17:37;7.18;;;3.15;;
32613;SDS011;19031;51.400;6.770;2023-03-01T14:20:25;6.10;;;3.25;;
32613;SDS011;19031;51.400;6.770;2023-03-01T14:22:57;6.63;;;3.70;;
32613;SDS011;19031;51.400;6.770;2023-03-01T14:25:26;8.23;;;3.35;;
32613;SDS011;19031;51.400;6.770;2023-03-01T14:28:00;5.50;;;3.58;;
32613;SDS011;19031;51.400;6.770;2023-03-01T14:30:34;9.30;;;3.83;;
32613;SDS011;19031;51.400;6.770;2023-03-01T14:33:06;9.20;;;3.70;;
32613;SDS011;19031;51.400;6.770;2023-03-01T14:35:54;7.07;;;3.10;;
32613;SDS011;19031;51.400;6.770;2023-03-01T14:38:22;7.00;;;3.45;;
32613;SDS011;19031;51.400;6.770;2023-03-01T14:40:59;6.88;;;3.50;;
32613;SDS011;19031;51.400;6.770;2023-03-01T14:43:28;6.55;;;3.60;;
32613;SDS011;19031;51.400;6.770;2023-03-01T14:45:55;7.43;;;3.00;;
32613;SDS011;19031;51.400;6.770;2023-03-01T14:48:21;7.38;;;3.55;;
32613;SDS011;19031;51.400;6.770;2023-03-01T14:50:47;9.27;;;3.50;;
32613;SDS011;19031;51.400;6.770;2023-03-01T14:53:18;8.07;;;3.72;;
32613;SDS011;19031;51.400;6.770;2023-03-01T14:55:49;7.43;;;3.35;;
32613;SDS011;19031;51.400;6.770;2023-03-01T14:58:19;4.80;;;3.10;;
32613;SDS011;19031;51.400;6.770;2023-03-01T15:00:49;7.63;;;3.95;;
32613;SDS011;19031;51.400;6.770;2023-03-01T15:03:40;7.78;;;3.58;;
32613;SDS011;19031;51.400;6.770;2023-03-01T15:06:09;7.20;;;3.08;;
32613;SDS011;19031;51.400;6.770;2023-03-01T15:08:37;10.48;;;3.85;;
32613;SDS011;19031;51.400;6.770;2023-03-01T15:13:57;6.57;;;3.42;;
32613;SDS011;19031;51.400;6.770;2023-03-01T15:21:27;8.15;;;3.85;;
32613;SDS011;19031;51.400;6.770;2023-03-01T15:26:50;7.38;;;3.70;;
32613;SDS011;19031;51.400;6.770;2023-03-01T15:29:20;5.95;;;3.17;;
32613;SDS011;19031;51.400;6.770;2023-03-01T15:31:58;7.00;;;3.60;;
32613;SDS011;19031;51.400;6.770;2023-03-01T15:34:28;7.55;;;3.55;;
32613;SDS011;19031;51.400;6.770;2023-03-01T15:36:55;10.32;;;3.85;;
32613;SDS011;19031;51.400;6.770;2023-03-01T15:41:52;8.85;;;3.47;;
32613;SDS011;19031;51.400;6.770;2023-03-01T15:44:23;10.32;;;3.78;;
32613;SDS011;19031;51.400;6.770;2023-03-01T15:46:50;11.18;;;3.92;;
32613;SDS011;19031;51.400;6.770;2023-03-01T15:52:05;5.82;;;2.90;;
32613;SDS011;19031;51.400;6.770;2023-03-01T15:55:00;6.28;;;2.97;;
32613;SDS011;19031;51.400;6.770;2023-03-01T15:57:28;5.68;;;2.70;;
32613;SDS011;19031;51.400;6.770;2023-03-01T15:59:54;10.15;;;2.97;;
32613;SDS011;19031;51.400;6.770;2023-03-01T16:02:21;8.90;;;3.40;;
32613;SDS011;19031;51.400;6.770;2023-03-01T16:04:48;8.60;;;3.50;;
32613;SDS011;19031;51.400;6.770;2023-03-01T16:07:13;7.07;;;2.97;;
32613;SDS011;19031;51.400;6.770;2023-03-01T16:09:39;6.13;;;2.70;;
32613;SDS011;19031;51.400;6.770;2023-03-01T16:12:05;7.63;;;3.47;;
32613;SDS011;19031;51.400;6.770;2023-03-01T16:14:36;8.63;;;3.38;;
32613;SDS011;19031;51.400;6.770;2023-03-01T16:17:02;13.57;;;2.92;;
32613;SDS011;19031;51.400;6.770;2023-03-01T16:19:27;6.72;;;2.92;;
32613;SDS011;19031;51.400;6.770;2023-03-01T16:21:53;6.43;;;3.03;;
32613;SDS011;19031;51.400;6.770;2023-03-01T16:24:18;8.35;;;2.85;;
32613;SDS011;19031;51.400;6.770;2023-03-01T16:26:44;5.30;;;3.00;;
32613;SDS011;19031;51.400;6.770;2023-03-01T16:29:09;9.43;;;2.80;;
32613;SDS011;19031;51.400;6.770;2023-03-01T16:31:35;4.82;;;2.97;;
32613;SDS011;19031;51.400;6.770;2023-03-01T16:34:00;5.80;;;3.10;;
32613;SDS011;19031;51.400;6.770;2023-03-01T16:36:26;6.82;;;3.28;;
32613;SDS011;19031;51.400;6.770;2023-03-01T16:38:56;5.90;;;2.95;;
32613;SDS011;19031;51.400;6.770;2023-03-01T16:41:25;11.43;;;3.15;;
32613;SDS011;19031;51.400;6.770;2023-03-01T16:43:51;7.20;;;2.70;;
32613;SDS011;19031;51.400;6.770;2023-03-01T16:46:19;6.00;;;3.20;;
32613;SDS011;19031;51.400;6.770;2023-03-01T16:48:47;7.03;;;3.22;;
32613;SDS011;19031;51.400;6.770;2023-03-01T16:51:13;6.43;;;2.60;;
32613;SDS011;19031;51.400;6.770;2023-03-01T16:53:40;4.22;;;3.30;;
32613;SDS011;19031;51.400;6.770;2023-03-01T16:56:06;6.55;;;3.17;;
32613;SDS011;19031;51.400;6.770;2023-03-01T16:58:34;3.78;;;2.47;;
32613;SDS011;19031;51.400;6.770;2023-03-01T17:01:04;6.80;;;3.08;;
32613;SDS011;19031;51.400;6.770;2023-03-01T17:03:30;10.18;;;2.83;;
32613;SDS011;19031;51.400;6.770;2023-03-01T17:05:56;7.85;;;3.65;;
32613;SDS011;19031;51.400;6.770;2023-03-01T17:08:22;5.22;;;3.03;;
32613;SDS011;19031;51.400;6.770;2023-03-01T17:10:47;9.68;;;3.78;;
32613;SDS011;19031;51.400;6.770;2023-03-01T17:13:13;5.63;;;2.50;;
32613;SDS011;19031;51.400;6.770;2023-03-01T17:15:39;7.95;;;3.38;;
32613;SDS011;19031;51.400;6.770;2023-03-01T17:18:06;9.52;;;2.72;;